Time;durP1;ratioP1;P1;durP2;ratioP2;P2;SDS_P1;SDS_P2;PMS_P1;PMS_P2;Temp;Humidity;BMP_temperature;BMP_pressure;BME280_temperature;BME280_humidity;BME280_pressure;Samples;Min_cycle;Max_cycle;Signal;HPM_P1;HPM_P2
2022/01/31 00:01:22;;;;;;;;;;;;;;;;;;5112577;28;20367;-73
2022/01/31 00:03:47;;;;;;;;;;;;;;;;;;5113958;28;19916;-74
2022/01/31 00:06:12;;;;;;;;;;;;;;;;;;5113603;28;19939;-73
2022/01/31 00:08:38;;;;;;;;;;;;;;;;;;5114043;28;19923;-75
2022/01/31 00:11:04;;;;;;;;;;;;;;;;;;5113867;28;19916;-73
2022/01/31 00:13:36;;;;;;;;;;;;;;;;;;5113798;28;19916;-73
2022/01/31 00:16:03;;;;;;;;;;;;;;;;;;5113540;28;19916;-74
2022/01/31 00:18:28;;;;;;;;;;;;;;;;;;5113716;28;19920;-76
2022/01/31 00:20:54;;;;;;;;;;;;;;;;;;5113789;28;19915;-72
2022/01/31 00:23:19;;;;;;;;;;;;;;;;;;5113705;28;20385;-75
2022/01/31 00:25:45;;;;;;;;;;;;;;;;;;5116838;28;19916;-76
2022/01/31 00:28:10;;;;;;;;;;;;;;;;;;5117887;28;20282;-74
2022/01/31 00:30:36;;;;;;;;;;;;;;;;;;5117921;27;19943;-72
2022/01/31 00:33:01;;;;;;;;;;;;;;;;;;5117934;28;19947;-75
2022/01/31 00:35:27;;;;;;;;;;;;;;;;;;5117833;28;19916;-74
2022/01/31 00:37:52;;;;;;;;;;;;;;;;;;5133649;27;19916;-74
2022/01/31 00:40:18;;;;;;;;;;;;;;;;;;5117728;28;19916;-76
2022/01/31 00:42:43;;;;;;;;;;;;;;;;;;5117595;28;19922;-74
2022/01/31 00:45:13;;;;;;;;;;;;;;;;;;5117691;28;19916;-74
2022/01/31 00:47:41;;;;;;;;;;;;;;;;;;5117540;28;19916;-74
2022/01/31 00:50:09;;;;;;;;;;;;;;;;;;5117445;28;19919;-74
2022/01/31 00:52:36;;;;;;;;;;;;;;;;;;5117836;28;20340;-76
2022/01/31 00:55:01;;;;;;;;;;;;;;;;;;5132857;27;19915;-73
2022/01/31 00:57:27;;;;;;;;;;;;;;;;;;5117743;28;19915;-75
2022/01/31 00:59:53;;;;;;;;;;;;;;;;;;5117286;28;19918;-73
2022/01/31 01:02:19;;;;;;;;;;;;;;;;;;5117179;28;19974;-75
2022/01/31 01:04:45;;;;;;;;;;;;;;;;;;5117443;28;19951;-76
2022/01/31 01:07:10;;;;;;;;;;;;;;;;;;5117912;28;19995;-76
2022/01/31 01:09:37;;;;;;;;;;;;;;;;;;5117184;28;20375;-76
2022/01/31 01:12:03;;;;;;;;;;;;;;;;;;5117067;28;19919;-73
2022/01/31 01:14:28;;;;;;;;;;;;;;;;;;5117155;28;20038;-77
2022/01/31 01:16:54;;;;;;;;;;;;;;;;;;5117284;28;19978;-72
2022/01/31 01:19:19;;;;;;;;;;;;;;;;;;5117022;28;20481;-73
2022/01/31 01:21:45;;;;;;;;;;;;;;;;;;5116882;28;20060;-72
2022/01/31 01:24:10;;;;;;;;;;;;;;;;;;5116866;28;19951;-73
2022/01/31 01:26:36;;;;;;;;;;;;;;;;;;5117159;28;19920;-77
2022/01/31 01:29:01;;;;;;;;;;;;;;;;;;5116975;28;20014;-72
2022/01/31 01:31:27;;;;;;;;;;;;;;;;;;5115473;28;20283;-73
2022/01/31 01:33:53;;;;;;;;;;;;;;;;;;5117011;28;20270;-73
2022/01/31 01:36:20;;;;;;;;;;;;;;;;;;5115904;28;20263;-74
2022/01/31 01:38:46;;;;;;;;;;;;;;;;;;5116622;28;19960;-73
2022/01/31 01:41:11;;;;;;;;;;;;;;;;;;5116465;28;19920;-72
2022/01/31 01:43:38;;;;;;;;;;;;;;;;;;5116560;28;20287;-72
2022/01/31 01:46:03;;;;;;;;;;;;;;;;;;5116355;28;20390;-73
2022/01/31 01:48:29;;;;;;;;;;;;;;;;;;5116329;28;19965;-75
2022/01/31 01:50:55;;;;;;;;;;;;;;;;;;5116750;28;19959;-78
2022/01/31 01:53:21;;;;;;;;;;;;;;;;;;5116339;28;19939;-76
2022/01/31 01:55:46;;;;;;;;;;;;;;;;;;5116269;28;20370;-74
2022/01/31 01:58:16;;;;;;;;;;;;;;;;;;5116093;28;19916;-76
2022/01/31 02:03:40;;;;;;;;;;;;;;;;;;5106784;28;19916;-72
2022/01/31 02:06:07;;;;;;;;;;;;;;;;;;5115937;28;19947;-73
2022/01/31 02:08:40;;;;;;;;;;;;;;;;;;5115863;28;19920;-77
2022/01/31 02:11:06;;;;;;;;;;;;;;;;;;5115973;28;19920;-74
2022/01/31 02:13:31;;;;;;;;;;;;;;;;;;5115927;28;19961;-72
2022/01/31 02:15:56;;;;;;;;;;;;;;;;;;5115854;28;19916;-77
2022/01/31 02:18:26;;;;;;;;;;;;;;;;;;5115866;28;19920;-76
2022/01/31 02:20:51;;;;;;;;;;;;;;;;;;5115809;28;19915;-74
2022/01/31 02:23:18;;;;;;;;;;;;;;;;;;5115926;28;20320;-78
2022/01/31 02:25:57;;;;;;;;;;;;;;;;;;5115713;28;19963;-75
2022/01/31 02:28:23;;;;;;;;;;;;;;;;;;5114346;28;19916;-78
2022/01/31 02:30:49;;;;;;;;;;;;;;;;;;5115613;28;19915;-78
2022/01/31 02:33:14;;;;;;;;;;;;;;;;;;5115609;28;20018;-73
2022/01/31 02:35:40;;;;;;;;;;;;;;;;;;5115510;28;19911;-73
2022/01/31 02:38:05;;;;;;;;;;;;;;;;;;5115635;28;19965;-76
2022/01/31 02:40:31;;;;;;;;;;;;;;;;;;5115268;28;19966;-72
2022/01/31 02:42:56;;;;;;;;;;;;;;;;;;5115315;28;19916;-76
2022/01/31 02:45:22;;;;;;;;;;;;;;;;;;5115409;28;20309;-75
2022/01/31 02:47:54;;;;;;;;;;;;;;;;;;5114218;28;20282;-76
2022/01/31 02:50:21;;;;;;;;;;;;;;;;;;5115267;28;19923;-72
2022/01/31 02:52:49;;;;;;;;;;;;;;;;;;5114887;28;20029;-75
2022/01/31 02:55:17;;;;;;;;;;;;;;;;;;5115308;28;19919;-75
2022/01/31 02:57:43;;;;;;;;;;;;;;;;;;5115084;28;19922;-74
2022/01/31 03:00:09;;;;;;;;;;;;;;;;;;5116260;28;20002;-73
2022/01/31 03:02:35;;;;;;;;;;;;;;;;;;5121585;28;19949;-76
2022/01/31 03:05:00;;;;;;;;;;;;;;;;;;5120472;28;19919;-72
2022/01/31 03:07:25;;;;;;;;;;;;;;;;;;5114937;28;19930;-74
2022/01/31 03:09:51;;;;;;;;;;;;;;;;;;5113596;28;20018;-76
2022/01/31 03:12:16;;;;;;;;;;;;;;;;;;5114700;28;20320;-73
2022/01/31 03:14:42;;;;;;;;;;;;;;;;;;5114918;28;19994;-75
2022/01/31 03:17:09;;;;;;;;;;;;;;;;;;5114519;28;19911;-73
2022/01/31 03:19:38;;;;;;;;;;;;;;;;;;5114643;28;19916;-75
2022/01/31 03:22:04;;;;;;;;;;;;;;;;;;5115007;28;19916;-72
2022/01/31 03:24:29;;;;;;;;;;;;;;;;;;5114571;28;19920;-75
2022/01/31 03:26:55;;;;;;;;;;;;;;;;;;5114611;28;19939;-75
2022/01/31 03:29:20;;;;;;;;;;;;;;;;;;5114542;28;20432;-75
2022/01/31 03:31:45;;;;;;;;;;;;;;;;;;5114457;28;19926;-72
2022/01/31 03:34:11;;;;;;;;;;;;;;;;;;5114371;28;19942;-73
2022/01/31 03:36:36;;;;;;;;;;;;;;;;;;5114418;28;19916;-73
2022/01/31 03:39:02;;;;;;;;;;;;;;;;;;5114340;28;19915;-72
2022/01/31 03:41:28;;;;;;;;;;;;;;;;;;5114245;28;20003;-75
2022/01/31 03:43:53;;;;;;;;;;;;;;;;;;5114268;28;20010;-73
2022/01/31 03:46:19;;;;;;;;;;;;;;;;;;5114215;28;20320;-73
2022/01/31 03:48:45;;;;;;;;;;;;;;;;;;5114248;28;20428;-72
2022/01/31 03:51:11;;;;;;;;;;;;;;;;;;5114204;28;19916;-74
2022/01/31 03:53:36;;;;;;;;;;;;;;;;;;5114148;28;20002;-74
2022/01/31 03:56:02;;;;;;;;;;;;;;;;;;5114063;28;20343;-72
2022/01/31 03:58:27;;;;;;;;;;;;;;;;;;5113911;28;19915;-73
2022/01/31 04:00:53;;;;;;;;;;;;;;;;;;5113282;28;19926;-74
2022/01/31 04:03:18;;;;;;;;;;;;;;;;;;5113962;28;19923;-76
2022/01/31 04:05:43;;;;;;;;;;;;;;;;;;5114113;28;20012;-76
2022/01/31 04:08:11;;;;;;;;;;;;;;;;;;5113748;28;20317;-74
2022/01/31 04:10:37;;;;;;;;;;;;;;;;;;5113597;28;19955;-75
2022/01/31 04:13:05;;;;;;;;;;;;;;;;;;5113495;28;19912;-73
2022/01/31 04:15:31;;;;;;;;;;;;;;;;;;5113145;28;20002;-74
2022/01/31 04:17:57;;;;;;;;;;;;;;;;;;5112055;28;19970;-73
2022/01/31 04:20:22;;;;;;;;;;;;;;;;;;5113291;28;19919;-77
2022/01/31 04:22:54;;;;;;;;;;;;;;;;;;5113225;28;19923;-78
2022/01/31 04:26:02;;;;;;;;;;;;;;;;;;5110756;28;19968;-78
2022/01/31 04:28:17;;;;;;;;;;;;;;;;;;5103955;28;19927;-80
2022/01/31 04:30:49;;;;;;;;;;;;;;;;;;5111096;28;19916;-76
2022/01/31 04:33:14;;;;;;;;;;;;;;;;;;5113237;28;19916;-74
2022/01/31 04:35:40;;;;;;;;;;;;;;;;;;5110397;28;19916;-75
2022/01/31 04:38:05;;;;;;;;;;;;;;;;;;5113102;28;19924;-76
2022/01/31 04:40:31;;;;;;;;;;;;;;;;;;5113084;28;19920;-74
2022/01/31 04:42:56;;;;;;;;;;;;;;;;;;5113005;28;19924;-75
2022/01/31 04:45:21;;;;;;;;;;;;;;;;;;5113129;28;20024;-75
2022/01/31 04:47:47;;;;;;;;;;;;;;;;;;5113006;28;20002;-74
2022/01/31 04:50:12;;;;;;;;;;;;;;;;;;5112868;28;20007;-74
2022/01/31 04:52:41;;;;;;;;;;;;;;;;;;5112967;28;19916;-72
2022/01/31 04:55:07;;;;;;;;;;;;;;;;;;5112916;28;20379;-75
2022/01/31 04:57:32;;;;;;;;;;;;;;;;;;5112991;28;19916;-77
2022/01/31 04:59:58;;;;;;;;;;;;;;;;;;5112797;28;19953;-74
2022/01/31 05:02:24;;;;;;;;;;;;;;;;;;5111518;28;19983;-74
2022/01/31 05:04:50;;;;;;;;;;;;;;;;;;5113181;28;20372;-75
2022/01/31 05:07:15;;;;;;;;;;;;;;;;;;5112516;28;19927;-77
2022/01/31 05:09:42;;;;;;;;;;;;;;;;;;5112907;28;19916;-75
2022/01/31 05:12:07;;;;;;;;;;;;;;;;;;5114763;28;19919;-73
2022/01/31 05:14:33;;;;;;;;;;;;;;;;;;5116275;28;20329;-77
2022/01/31 05:16:58;;;;;;;;;;;;;;;;;;5116532;28;19916;-74
2022/01/31 05:19:25;;;;;;;;;;;;;;;;;;5116452;28;19934;-74
2022/01/31 05:21:50;;;;;;;;;;;;;;;;;;5116352;28;19916;-74
2022/01/31 05:24:16;;;;;;;;;;;;;;;;;;5116389;28;19955;-75
2022/01/31 05:26:41;;;;;;;;;;;;;;;;;;5116352;28;20006;-72
2022/01/31 05:29:07;;;;;;;;;;;;;;;;;;5115702;28;19916;-77
2022/01/31 05:31:32;;;;;;;;;;;;;;;;;;5115992;28;19919;-76
2022/01/31 05:33:58;;;;;;;;;;;;;;;;;;5116151;28;19968;-75
2022/01/31 05:36:24;;;;;;;;;;;;;;;;;;5116155;28;20390;-74
2022/01/31 05:38:49;;;;;;;;;;;;;;;;;;5116206;28;20371;-77
2022/01/31 05:41:19;;;;;;;;;;;;;;;;;;5116148;28;19923;-73
2022/01/31 05:43:45;;;;;;;;;;;;;;;;;;5105362;28;19984;-73
2022/01/31 05:46:11;;;;;;;;;;;;;;;;;;5113186;28;20018;-77
2022/01/31 05:48:36;;;;;;;;;;;;;;;;;;5115913;28;20004;-76
2022/01/31 05:51:03;;;;;;;;;;;;;;;;;;5115905;28;20013;-75
2022/01/31 05:53:30;;;;;;;;;;;;;;;;;;5115924;27;19930;-74
2022/01/31 05:55:57;;;;;;;;;;;;;;;;;;5114393;28;19916;-74
2022/01/31 05:58:22;;;;;;;;;;;;;;;;;;5115903;28;19916;-78
2022/01/31 06:00:47;;;;;;;;;;;;;;;;;;5116022;28;19915;-77
2022/01/31 06:03:13;;;;;;;;;;;;;;;;;;5115823;28;19916;-75
2022/01/31 06:05:38;;;;;;;;;;;;;;;;;;5115756;28;20018;-74
2022/01/31 06:08:04;;;;;;;;;;;;;;;;;;5112681;28;19919;-77
2022/01/31 06:10:29;;;;;;;;;;;;;;;;;;5115350;28;20053;-77
2022/01/31 06:12:56;;;;;;;;;;;;;;;;;;5114871;28;19969;-79
2022/01/31 06:15:21;;;;;;;;;;;;;;;;;;5114839;28;19951;-77
2022/01/31 06:17:47;;;;;;;;;;;;;;;;;;5116993;27;19923;-77
2022/01/31 06:20:12;;;;;;;;;;;;;;;;;;5114849;28;19916;-78
2022/01/31 06:22:48;;;;;;;;;;;;;;;;;;5114974;28;20375;-77
2022/01/31 06:25:13;;;;;;;;;;;;;;;;;;5112214;28;19968;-76
2022/01/31 06:27:39;;;;;;;;;;;;;;;;;;5115315;28;19915;-76
2022/01/31 06:30:06;;;;;;;;;;;;;;;;;;5114833;28;20359;-78
2022/01/31 06:32:31;;;;;;;;;;;;;;;;;;5113701;28;20386;-74
2022/01/31 06:34:57;;;;;;;;;;;;;;;;;;5114970;28;19965;-75
2022/01/31 06:37:22;;;;;;;;;;;;;;;;;;5114840;28;19916;-77
2022/01/31 06:39:48;;;;;;;;;;;;;;;;;;5112996;28;19916;-75
2022/01/31 06:42:14;;;;;;;;;;;;;;;;;;5113621;28;19916;-76
2022/01/31 06:44:40;;;;;;;;;;;;;;;;;;5114902;28;19927;-76
2022/01/31 06:47:05;;;;;;;;;;;;;;;;;;5114498;28;19920;-77
2022/01/31 06:49:31;;;;;;;;;;;;;;;;;;5114784;28;20340;-75
2022/01/31 06:51:56;;;;;;;;;;;;;;;;;;5114572;28;20352;-73
2022/01/31 06:54:22;;;;;;;;;;;;;;;;;;5122520;28;19916;-77
2022/01/31 06:56:47;;;;;;;;;;;;;;;;;;5123678;28;20401;-77
2022/01/31 06:59:13;;;;;;;;;;;;;;;;;;5116432;28;19916;-75
2022/01/31 07:01:38;;;;;;;;;;;;;;;;;;5115703;28;19978;-73
2022/01/31 07:04:04;;;;;;;;;;;;;;;;;;5107261;27;20374;-78
2022/01/31 07:06:29;;;;;;;;;;;;;;;;;;5096816;27;19958;-78
2022/01/31 07:08:55;;;;;;;;;;;;;;;;;;5094550;28;19966;-76
2022/01/31 07:11:26;;;;;;;;;;;;;;;;;;5094383;28;20291;-79
2022/01/31 07:14:36;;;;;;;;;;;;;;;;;;5094355;28;20371;-78
2022/01/31 07:16:37;;;;;;;;;;;;;;;;;;5093774;28;19924;-79
2022/01/31 07:19:08;;;;;;;;;;;;;;;;;;5094298;28;19917;-80
2022/01/31 07:21:47;;;;;;;;;;;;;;;;;;5094205;28;19916;-77
2022/01/31 07:24:23;;;;;;;;;;;;;;;;;;5094197;28;19920;-75
2022/01/31 07:26:49;;;;;;;;;;;;;;;;;;5094486;28;19916;-75
2022/01/31 07:29:14;;;;;;;;;;;;;;;;;;5097612;28;20010;-76
2022/01/31 07:31:40;;;;;;;;;;;;;;;;;;5109466;27;19958;-75
2022/01/31 07:34:06;;;;;;;;;;;;;;;;;;5096437;27;20098;-77
2022/01/31 07:36:32;;;;;;;;;;;;;;;;;;5111165;28;20420;-75
2022/01/31 07:38:57;;;;;;;;;;;;;;;;;;5111098;28;20429;-77
2022/01/31 07:41:23;;;;;;;;;;;;;;;;;;5094401;28;19916;-77
2022/01/31 07:43:49;;;;;;;;;;;;;;;;;;5114648;28;19955;-77
2022/01/31 07:46:14;;;;;;;;;;;;;;;;;;5113934;27;19923;-76
2022/01/31 07:48:40;;;;;;;;;;;;;;;;;;5114140;28;19923;-78
2022/01/31 07:51:05;;;;;;;;;;;;;;;;;;5113851;28;20287;-76
2022/01/31 07:53:31;;;;;;;;;;;;;;;;;;5114150;28;20019;-76
2022/01/31 07:55:58;;;;;;;;;;;;;;;;;;5114410;28;20341;-77
2022/01/31 07:58:23;;;;;;;;;;;;;;;;;;5113343;28;19916;-76
2022/01/31 08:00:49;;;;;;;;;;;;;;;;;;5113774;28;20398;-76
2022/01/31 08:03:14;;;;;;;;;;;;;;;;;;5113750;28;19920;-77
2022/01/31 08:05:40;;;;;;;;;;;;;;;;;;5113674;28;19915;-76
2022/01/31 08:08:05;;;;;;;;;;;;;;;;;;5112259;28;19927;-75
2022/01/31 08:10:32;;;;;;;;;;;;;;;;;;5107197;28;19931;-76
2022/01/31 08:13:00;;;;;;;;;;;;;;;;;;5107619;28;19930;-74
2022/01/31 08:15:28;;;;;;;;;;;;;;;;;;5110146;28;19927;-74
2022/01/31 08:17:53;;;;;;;;;;;;;;;;;;5111756;28;19915;-78
2022/01/31 08:20:19;;;;;;;;;;;;;;;;;;5109981;28;19912;-74
2022/01/31 08:22:44;;;;;;;;;;;;;;;;;;5112222;28;20290;-77
2022/01/31 08:25:14;;;;;;;;;;;;;;;;;;5110991;28;19924;-75
2022/01/31 08:27:45;;;;;;;;;;;;;;;;;;5111070;28;19920;-75
2022/01/31 08:30:15;;;;;;;;;;;;;;;;;;5110849;28;19950;-74
2022/01/31 08:32:45;;;;;;;;;;;;;;;;;;5113844;28;19915;-75
2022/01/31 08:37:55;;;;;;;;;;;;;;;;;;5112978;28;19950;-74
2022/01/31 08:40:21;;;;;;;;;;;;;;;;;;5113309;28;19916;-74
2022/01/31 08:42:46;;;;;;;;;;;;;;;;;;5113012;28;19919;-74
2022/01/31 08:45:12;;;;;;;;;;;;;;;;;;5111639;28;20010;-75
2022/01/31 08:47:41;;;;;;;;;;;;;;;;;;5115765;28;20011;-76
2022/01/31 08:50:10;;;;;;;;;;;;;;;;;;5115697;28;20290;-74
2022/01/31 08:52:36;;;;;;;;;;;;;;;;;;5116918;28;19946;-75
2022/01/31 08:55:01;;;;;;;;;;;;;;;;;;5117394;28;20371;-76
2022/01/31 08:57:27;;;;;;;;;;;;;;;;;;5117356;28;19920;-75
2022/01/31 08:59:52;;;;;;;;;;;;;;;;;;5117544;28;19915;-72
2022/01/31 09:02:24;;;;;;;;;;;;;;;;;;5096677;28;19947;-75
2022/01/31 09:04:51;;;;;;;;;;;;;;;;;;5106591;28;19916;-75
2022/01/31 09:07:18;;;;;;;;;;;;;;;;;;5115801;28;20010;-73
2022/01/31 09:09:44;;;;;;;;;;;;;;;;;;5117288;28;20363;-75
2022/01/31 09:12:11;;;;;;;;;;;;;;;;;;5116790;28;19922;-74
2022/01/31 09:14:37;;;;;;;;;;;;;;;;;;5116908;28;19946;-75
2022/01/31 09:17:02;;;;;;;;;;;;;;;;;;5116797;28;19915;-74
2022/01/31 09:19:28;;;;;;;;;;;;;;;;;;5116930;28;19916;-75
2022/01/31 09:21:53;;;;;;;;;;;;;;;;;;5116893;28;20363;-74
2022/01/31 09:24:19;;;;;;;;;;;;;;;;;;5115413;28;19915;-74
2022/01/31 09:26:44;;;;;;;;;;;;;;;;;;5117064;28;19916;-74
2022/01/31 09:29:10;;;;;;;;;;;;;;;;;;5114441;28;19920;-75
2022/01/31 09:31:35;;;;;;;;;;;;;;;;;;5116701;28;19960;-74
2022/01/31 09:34:01;;;;;;;;;;;;;;;;;;5116392;28;20306;-76
2022/01/31 09:36:27;;;;;;;;;;;;;;;;;;5116697;28;19947;-75
2022/01/31 09:38:53;;;;;;;;;;;;;;;;;;5114193;28;19928;-77
2022/01/31 09:41:22;;;;;;;;;;;;;;;;;;5112277;28;20415;-72
2022/01/31 09:44:02;;;;;;;;;;;;;;;;;;5112096;28;19920;-71
2022/01/31 09:48:56;;;;;;;;;;;;;;;;;;5111000;28;20003;-78
2022/01/31 09:51:22;;;;;;;;;;;;;;;;;;5112065;28;19928;-79
2022/01/31 09:53:49;;;;;;;;;;;;;;;;;;5112134;28;19930;-73
2022/01/31 10:07:21;;;;;;;;;;;;;;;;;;5149509;27;20022;-77
2022/01/31 10:09:48;;;;;;;;;;;;;;;;;;5138083;27;19920;-77
2022/01/31 12:54:42;;;;;;;;;;;;;;;;;;5110522;27;20001;-76
2022/01/31 12:57:12;;;;;;;;;;;;;;;;;;5104354;28;19920;-78
2022/01/31 12:59:40;;;;;;;;;;;;;;;;;;5097777;28;19975;-78
2022/01/31 13:02:08;;;;;;;;;;;;;;;;;;5108693;28;20325;-79
2022/01/31 13:04:33;;;;;;;;;;;;;;;;;;5110569;28;19920;-79
2022/01/31 13:07:00;;;;;;;;;;;;;;;;;;5110660;28;19920;-79
2022/01/31 13:09:26;;;;;;;;;;;;;;;;;;5110523;28;20290;-79
2022/01/31 13:11:54;;;;;;;;;;;;;;;;;;5109106;28;19959;-78
2022/01/31 13:14:23;;;;;;;;;;;;;;;;;;5110500;28;19922;-75
2022/01/31 13:16:58;;;;;;;;;;;;;;;;;;5110525;28;19938;-75
2022/01/31 13:19:25;;;;;;;;;;;;;;;;;;5110333;28;19920;-82
2022/01/31 13:21:51;;;;;;;;;;;;;;;;;;5110240;28;20325;-77
2022/01/31 13:24:17;;;;;;;;;;;;;;;;;;5110181;28;20313;-77
2022/01/31 13:27:02;;;;;;;;;;;;;;;;;;5110246;28;19923;-77
2022/01/31 13:29:35;;;;;;;;;;;;;;;;;;5110081;28;19962;-76
2022/01/31 13:32:19;;;;;;;;;;;;;;;;;;5110169;28;19955;-78
2022/01/31 13:34:45;;;;;;;;;;;;;;;;;;5110133;28;19955;-77
2022/01/31 13:37:29;;;;;;;;;;;;;;;;;;5109975;28;20390;-74
2022/01/31 13:39:59;;;;;;;;;;;;;;;;;;5110008;28;19955;-75
2022/01/31 13:42:28;;;;;;;;;;;;;;;;;;5109895;28;19916;-76
2022/01/31 13:44:56;;;;;;;;;;;;;;;;;;5109848;28;20397;-79
2022/01/31 13:47:45;;;;;;;;;;;;;;;;;;5109732;28;19920;-78
2022/01/31 13:50:25;;;;;;;;;;;;;;;;;;5109764;28;19950;-78
2022/01/31 13:53:10;;;;;;;;;;;;;;;;;;5109529;28;20022;-79
2022/01/31 13:55:40;;;;;;;;;;;;;;;;;;5096106;28;19916;-77
2022/01/31 13:58:06;;;;;;;;;;;;;;;;;;5096020;28;19949;-76
2022/01/31 14:00:35;;;;;;;;;;;;;;;;;;5096019;28;20286;-77
2022/01/31 14:03:12;;;;;;;;;;;;;;;;;;5095968;28;19956;-77
2022/01/31 14:05:41;;;;;;;;;;;;;;;;;;5095825;28;19916;-77
2022/01/31 14:08:09;;;;;;;;;;;;;;;;;;5095949;28;19916;-79
2022/01/31 14:10:36;;;;;;;;;;;;;;;;;;5095828;28;19916;-78
2022/01/31 14:13:03;;;;;;;;;;;;;;;;;;5095830;28;19984;-81
2022/01/31 14:15:28;;;;;;;;;;;;;;;;;;5095536;28;19920;-86
2022/01/31 14:17:54;;;;;;;;;;;;;;;;;;5095640;28;20058;-79
2022/01/31 14:20:19;;;;;;;;;;;;;;;;;;5095796;28;20042;-79
2022/01/31 14:22:54;;;;;;;;;;;;;;;;;;5095530;28;19917;-78
2022/01/31 14:25:19;;;;;;;;;;;;;;;;;;5095413;28;19924;-78
2022/01/31 14:27:48;;;;;;;;;;;;;;;;;;5095440;28;20299;-79
2022/01/31 14:30:14;;;;;;;;;;;;;;;;;;5094131;28;19923;-79
2022/01/31 14:32:39;;;;;;;;;;;;;;;;;;5095401;28;20295;-80
2022/01/31 14:35:08;;;;;;;;;;;;;;;;;;5095276;28;19916;-80
2022/01/31 14:37:34;;;;;;;;;;;;;;;;;;5095238;28;20079;-81
2022/01/31 14:42:51;;;;;;;;;;;;;;;;;;5084730;28;19931;-83
2022/01/31 14:48:06;;;;;;;;;;;;;;;;;;5075198;28;19928;-74
2022/01/31 14:50:32;;;;;;;;;;;;;;;;;;5080610;28;19970;-75
2022/01/31 14:53:08;;;;;;;;;;;;;;;;;;5081375;28;19981;-78
2022/01/31 14:55:37;;;;;;;;;;;;;;;;;;5081377;28;19959;-74
2022/01/31 14:58:03;;;;;;;;;;;;;;;;;;5086209;28;19977;-75
2022/01/31 15:00:29;;;;;;;;;;;;;;;;;;5074509;28;19925;-73
2022/01/31 15:02:54;;;;;;;;;;;;;;;;;;5080889;28;19952;-80
2022/01/31 15:05:20;;;;;;;;;;;;;;;;;;5078484;28;19975;-79
2022/01/31 15:07:46;;;;;;;;;;;;;;;;;;5084481;28;20325;-79
2022/01/31 15:10:12;;;;;;;;;;;;;;;;;;5083620;28;20276;-80
2022/01/31 15:12:38;;;;;;;;;;;;;;;;;;5080350;28;19997;-79
2022/01/31 15:15:05;;;;;;;;;;;;;;;;;;5080410;28;19934;-75
2022/01/31 15:17:32;;;;;;;;;;;;;;;;;;5084241;28;19928;-76
2022/01/31 15:19:57;;;;;;;;;;;;;;;;;;5084259;28;19916;-75
2022/01/31 15:22:23;;;;;;;;;;;;;;;;;;5074082;28;19974;-75
2022/01/31 15:24:48;;;;;;;;;;;;;;;;;;5076461;28;20144;-74
2022/01/31 15:27:14;;;;;;;;;;;;;;;;;;5082871;28;19981;-75
2022/01/31 15:29:39;;;;;;;;;;;;;;;;;;5081635;28;19916;-75
2022/01/31 15:32:05;;;;;;;;;;;;;;;;;;5073936;28;19928;-78
2022/01/31 15:34:31;;;;;;;;;;;;;;;;;;5079654;28;19920;-76
2022/01/31 15:36:57;;;;;;;;;;;;;;;;;;5085352;28;20292;-79
2022/01/31 15:39:22;;;;;;;;;;;;;;;;;;5083282;28;19920;-78
2022/01/31 15:41:51;;;;;;;;;;;;;;;;;;5079018;28;20011;-79
2022/01/31 15:44:26;;;;;;;;;;;;;;;;;;5081545;28;19978;-75
2022/01/31 15:46:52;;;;;;;;;;;;;;;;;;5079932;28;20425;-77
2022/01/31 15:49:17;;;;;;;;;;;;;;;;;;5081615;28;20371;-78
2022/01/31 15:51:43;;;;;;;;;;;;;;;;;;5083801;28;19927;-78
2022/01/31 15:54:08;;;;;;;;;;;;;;;;;;5074033;28;19970;-91
2022/01/31 15:56:34;;;;;;;;;;;;;;;;;;5078840;28;19928;-83
2022/01/31 15:58:59;;;;;;;;;;;;;;;;;;5083837;28;19916;-85
2022/01/31 16:01:27;;;;;;;;;;;;;;;;;;5072371;28;19975;-77
2022/01/31 16:03:53;;;;;;;;;;;;;;;;;;5073076;28;19955;-78
2022/01/31 16:06:18;;;;;;;;;;;;;;;;;;5073458;28;20418;-73
2022/01/31 16:08:44;;;;;;;;;;;;;;;;;;5073136;28;19917;-74
2022/01/31 16:11:09;;;;;;;;;;;;;;;;;;5073240;28;19916;-73
2022/01/31 16:13:36;;;;;;;;;;;;;;;;;;5073314;28;19920;-73
2022/01/31 16:16:01;;;;;;;;;;;;;;;;;;5073266;28;19917;-73
2022/01/31 16:18:27;;;;;;;;;;;;;;;;;;5072887;28;19916;-75
2022/01/31 16:20:53;;;;;;;;;;;;;;;;;;5073088;28;19916;-75
2022/01/31 16:23:19;;;;;;;;;;;;;;;;;;5073214;28;19924;-74
2022/01/31 16:25:44;;;;;;;;;;;;;;;;;;5092900;28;20028;-76
2022/01/31 16:28:15;;;;;;;;;;;;;;;;;;5092009;28;19920;-76
2022/01/31 16:30:41;;;;;;;;;;;;;;;;;;5092872;28;19938;-74
2022/01/31 16:33:06;;;;;;;;;;;;;;;;;;5093140;28;20359;-75
2022/01/31 16:35:32;;;;;;;;;;;;;;;;;;5093101;28;19942;-73
2022/01/31 16:37:57;;;;;;;;;;;;;;;;;;5093132;28;19939;-76
2022/01/31 16:40:23;;;;;;;;;;;;;;;;;;5093146;28;19916;-78
2022/01/31 16:42:49;;;;;;;;;;;;;;;;;;5089285;28;20382;-75
2022/01/31 16:45:15;;;;;;;;;;;;;;;;;;5091865;28;20315;-75
2022/01/31 16:47:42;;;;;;;;;;;;;;;;;;5078929;28;19916;-75
2022/01/31 16:50:08;;;;;;;;;;;;;;;;;;5072604;28;19986;-75
2022/01/31 16:52:35;;;;;;;;;;;;;;;;;;5072525;28;20403;-75
2022/01/31 16:55:01;;;;;;;;;;;;;;;;;;5072772;28;19986;-76
2022/01/31 16:57:26;;;;;;;;;;;;;;;;;;5072671;28;20372;-75
2022/01/31 16:59:52;;;;;;;;;;;;;;;;;;5071347;28;20340;-75
2022/01/31 17:02:17;;;;;;;;;;;;;;;;;;5072339;28;20384;-75
2022/01/31 17:04:43;;;;;;;;;;;;;;;;;;5104999;28;19924;-76
2022/01/31 17:07:08;;;;;;;;;;;;;;;;;;5072450;28;19923;-74
2022/01/31 17:09:34;;;;;;;;;;;;;;;;;;5072839;28;19922;-75
2022/01/31 17:12:00;;;;;;;;;;;;;;;;;;5072441;28;20279;-76
2022/01/31 17:14:25;;;;;;;;;;;;;;;;;;5072561;28;19913;-75
2022/01/31 17:16:51;;;;;;;;;;;;;;;;;;5072389;28;19934;-75
2022/01/31 17:19:17;;;;;;;;;;;;;;;;;;5072546;28;19922;-76
2022/01/31 17:21:44;;;;;;;;;;;;;;;;;;5072334;28;19919;-76
2022/01/31 17:24:10;;;;;;;;;;;;;;;;;;5072272;28;19927;-77
2022/01/31 17:26:36;;;;;;;;;;;;;;;;;;5072248;28;19916;-73
2022/01/31 17:29:02;;;;;;;;;;;;;;;;;;5072891;28;19917;-79
2022/01/31 17:31:28;;;;;;;;;;;;;;;;;;5075905;28;19917;-75
2022/01/31 17:33:53;;;;;;;;;;;;;;;;;;5076068;28;19928;-79
2022/01/31 17:36:19;;;;;;;;;;;;;;;;;;5076025;28;19959;-78
2022/01/31 17:38:46;;;;;;;;;;;;;;;;;;5076047;28;20039;-76
2022/01/31 17:41:12;;;;;;;;;;;;;;;;;;5075920;28;20011;-77
2022/01/31 17:43:40;;;;;;;;;;;;;;;;;;5075696;28;19955;-77
2022/01/31 17:46:05;;;;;;;;;;;;;;;;;;5075805;28;19958;-79
2022/01/31 17:48:33;;;;;;;;;;;;;;;;;;5075870;28;19916;-77
2022/01/31 17:50:59;;;;;;;;;;;;;;;;;;5074370;28;20334;-78
2022/01/31 17:53:25;;;;;;;;;;;;;;;;;;5075486;28;19920;-76
2022/01/31 17:55:51;;;;;;;;;;;;;;;;;;5075605;28;20007;-74
2022/01/31 17:58:16;;;;;;;;;;;;;;;;;;5075682;28;20323;-78
2022/01/31 18:00:42;;;;;;;;;;;;;;;;;;5075495;28;19916;-76
2022/01/31 18:03:07;;;;;;;;;;;;;;;;;;5075622;28;19917;-76
2022/01/31 18:05:32;;;;;;;;;;;;;;;;;;5075466;28;20364;-72
2022/01/31 18:07:58;;;;;;;;;;;;;;;;;;5075444;28;19916;-79
2022/01/31 18:10:24;;;;;;;;;;;;;;;;;;5075305;28;19952;-78
2022/01/31 18:12:49;;;;;;;;;;;;;;;;;;5075382;28;19921;-75
2022/01/31 18:15:15;;;;;;;;;;;;;;;;;;5075191;28;20019;-73
2022/01/31 18:17:41;;;;;;;;;;;;;;;;;;5108018;28;19924;-72
2022/01/31 18:20:08;;;;;;;;;;;;;;;;;;5075168;28;19921;-77
2022/01/31 18:22:34;;;;;;;;;;;;;;;;;;5075096;28;19924;-72
2022/01/31 18:25:00;;;;;;;;;;;;;;;;;;5075837;28;19927;-74
2022/01/31 18:27:25;;;;;;;;;;;;;;;;;;5089669;28;19920;-73
2022/01/31 18:29:50;;;;;;;;;;;;;;;;;;5095215;28;19916;-77
2022/01/31 18:32:16;;;;;;;;;;;;;;;;;;5095350;28;20011;-78
2022/01/31 18:34:41;;;;;;;;;;;;;;;;;;5095338;28;19916;-74
2022/01/31 18:37:07;;;;;;;;;;;;;;;;;;5093424;28;19952;-78
2022/01/31 18:39:33;;;;;;;;;;;;;;;;;;5080266;28;20386;-77
2022/01/31 18:42:01;;;;;;;;;;;;;;;;;;5086552;28;20406;-78
2022/01/31 18:44:27;;;;;;;;;;;;;;;;;;5083657;28;19924;-75
2022/01/31 18:46:52;;;;;;;;;;;;;;;;;;5082120;28;19920;-76
2022/01/31 18:49:18;;;;;;;;;;;;;;;;;;5089576;28;19934;-74
2022/01/31 18:51:44;;;;;;;;;;;;;;;;;;5090878;28;19916;-76
2022/01/31 18:54:10;;;;;;;;;;;;;;;;;;5093714;28;20040;-74
2022/01/31 18:56:36;;;;;;;;;;;;;;;;;;5091043;28;20007;-76
2022/01/31 18:59:03;;;;;;;;;;;;;;;;;;5091080;28;19966;-76
2022/01/31 19:01:28;;;;;;;;;;;;;;;;;;5094257;28;20448;-76
2022/01/31 19:03:54;;;;;;;;;;;;;;;;;;5095041;28;19916;-75
2022/01/31 19:06:20;;;;;;;;;;;;;;;;;;5095518;28;19939;-72
2022/01/31 19:08:46;;;;;;;;;;;;;;;;;;5091702;28;19920;-75
2022/01/31 19:11:19;;;;;;;;;;;;;;;;;;5090832;28;20378;-76
2022/01/31 19:13:52;;;;;;;;;;;;;;;;;;5091723;28;19920;-78
2022/01/31 19:16:19;;;;;;;;;;;;;;;;;;5093947;28;19922;-78
2022/01/31 19:18:45;;;;;;;;;;;;;;;;;;5093828;28;19916;-77
2022/01/31 19:21:10;;;;;;;;;;;;;;;;;;5089709;28;20432;-76
2022/01/31 19:23:36;;;;;;;;;;;;;;;;;;5087221;28;19970;-74
2022/01/31 19:26:01;;;;;;;;;;;;;;;;;;5088014;28;19920;-79
2022/01/31 19:28:28;;;;;;;;;;;;;;;;;;5089364;28;20027;-78
2022/01/31 19:30:55;;;;;;;;;;;;;;;;;;5087678;28;19932;-80
2022/01/31 19:33:21;;;;;;;;;;;;;;;;;;5084972;28;20307;-76
2022/01/31 19:35:50;;;;;;;;;;;;;;;;;;5086470;28;19916;-78
2022/01/31 19:38:20;;;;;;;;;;;;;;;;;;5083906;28;20430;-77
2022/01/31 19:43:29;;;;;;;;;;;;;;;;;;5087144;28;19970;-72
2022/01/31 19:46:02;;;;;;;;;;;;;;;;;;5089660;28;19916;-74
2022/01/31 19:48:28;;;;;;;;;;;;;;;;;;5088736;28;20422;-76
2022/01/31 19:50:55;;;;;;;;;;;;;;;;;;5088140;28;20014;-77
2022/01/31 19:53:21;;;;;;;;;;;;;;;;;;5085681;28;20007;-78